sensor_id;sensor_type;location;lat;lon;timestamp;P1;durP1;ratioP1;P2;durP2;ratioP2
6251;SDS011;3159;52.414;9.784;2023-08-07T00:00:55;4.80;;;3.40;;
6251;SDS011;3159;52.414;9.784;2023-08-07T00:03:23;3.80;;;3.40;;
6251;SDS011;3159;52.414;9.784;2023-08-07T00:05:50;3.87;;;2.80;;
6251;SDS011;3159;52.414;9.784;2023-08-07T00:08:17;3.47;;;3.17;;
6251;SDS011;3159;52.414;9.784;2023-08-07T00:10:45;3.73;;;3.13;;
6251;SDS011;3159;52.414;9.784;2023-08-07T00:13:12;4.13;;;3.43;;
6251;SDS011;3159;52.414;9.784;2023-08-07T00:15:39;5.87;;;3.53;;
6251;SDS011;3159;52.414;9.784;2023-08-07T00:18:06;4.20;;;3.60;;
6251;SDS011;3159;52.414;9.784;2023-08-07T00:20:33;4.17;;;3.43;;
6251;SDS011;3159;52.414;9.784;2023-08-07T00:23:00;4.47;;;3.80;;
6251;SDS011;3159;52.414;9.784;2023-08-07T00:25:27;6.07;;;3.90;;
6251;SDS011;3159;52.414;9.784;2023-08-07T00:27:55;4.07;;;3.00;;
6251;SDS011;3159;52.414;9.784;2023-08-07T00:30:22;4.30;;;3.40;;
6251;SDS011;3159;52.414;9.784;2023-08-07T00:32:49;4.87;;;3.37;;
6251;SDS011;3159;52.414;9.784;2023-08-07T00:35:15;5.00;;;4.20;;
6251;SDS011;3159;52.414;9.784;2023-08-07T00:37:42;4.13;;;3.70;;
6251;SDS011;3159;52.414;9.784;2023-08-07T00:40:10;4.77;;;3.60;;
6251;SDS011;3159;52.414;9.784;2023-08-07T00:42:37;4.53;;;3.93;;
6251;SDS011;3159;52.414;9.784;2023-08-07T00:45:06;6.00;;;4.07;;
6251;SDS011;3159;52.414;9.784;2023-08-07T00:47:33;5.40;;;4.27;;
6251;SDS011;3159;52.414;9.784;2023-08-07T00:50:00;5.57;;;4.40;;
6251;SDS011;3159;52.414;9.784;2023-08-07T00:52:30;5.70;;;4.07;;
6251;SDS011;3159;52.414;9.784;2023-08-07T00:54:57;4.67;;;3.70;;
6251;SDS011;3159;52.414;9.784;2023-08-07T00:57:24;5.00;;;4.50;;
6251;SDS011;3159;52.414;9.784;2023-08-07T00:59:52;6.43;;;4.10;;
6251;SDS011;3159;52.414;9.784;2023-08-07T01:02:20;4.70;;;4.20;;
6251;SDS011;3159;52.414;9.784;2023-08-07T01:04:47;6.00;;;4.17;;
6251;SDS011;3159;52.414;9.784;2023-08-07T01:07:15;6.17;;;4.70;;
6251;SDS011;3159;52.414;9.784;2023-08-07T01:09:42;7.90;;;4.40;;
6251;SDS011;3159;52.414;9.784;2023-08-07T01:12:10;4.40;;;3.90;;
6251;SDS011;3159;52.414;9.784;2023-08-07T01:14:44;4.77;;;4.27;;
6251;SDS011;3159;52.414;9.784;2023-08-07T01:17:16;4.73;;;4.30;;
6251;SDS011;3159;52.414;9.784;2023-08-07T01:19:47;6.27;;;4.20;;
6251;SDS011;3159;52.414;9.784;2023-08-07T01:22:17;4.43;;;4.03;;
6251;SDS011;3159;52.414;9.784;2023-08-07T01:24:45;6.97;;;4.20;;
6251;SDS011;3159;52.414;9.784;2023-08-07T01:27:17;5.43;;;4.30;;
6251;SDS011;3159;52.414;9.784;2023-08-07T01:29:53;4.67;;;4.27;;
6251;SDS011;3159;52.414;9.784;2023-08-07T01:32:24;6.53;;;5.10;;
6251;SDS011;3159;52.414;9.784;2023-08-07T01:34:55;4.93;;;4.50;;
6251;SDS011;3159;52.414;9.784;2023-08-07T01:37:24;6.60;;;4.63;;
6251;SDS011;3159;52.414;9.784;2023-08-07T01:39:53;4.90;;;4.40;;
6251;SDS011;3159;52.414;9.784;2023-08-07T01:42:21;5.43;;;4.93;;
6251;SDS011;3159;52.414;9.784;2023-08-07T01:44:48;6.00;;;5.40;;
6251;SDS011;3159;52.414;9.784;2023-08-07T01:47:15;6.33;;;5.07;;
6251;SDS011;3159;52.414;9.784;2023-08-07T01:49:41;7.33;;;5.23;;
6251;SDS011;3159;52.414;9.784;2023-08-07T01:52:09;7.30;;;5.37;;
6251;SDS011;3159;52.414;9.784;2023-08-07T01:54:37;9.27;;;5.60;;
6251;SDS011;3159;52.414;9.784;2023-08-07T01:57:04;7.00;;;5.63;;
6251;SDS011;3159;52.414;9.784;2023-08-07T01:59:32;6.83;;;5.30;;
6251;SDS011;3159;52.414;9.784;2023-08-07T02:01:58;5.93;;;4.70;;
6251;SDS011;3159;52.414;9.784;2023-08-07T02:04:25;5.27;;;4.77;;
6251;SDS011;3159;52.414;9.784;2023-08-07T02:06:52;6.87;;;5.20;;
6251;SDS011;3159;52.414;9.784;2023-08-07T02:09:19;5.53;;;4.90;;
6251;SDS011;3159;52.414;9.784;2023-08-07T02:11:48;5.87;;;4.60;;
6251;SDS011;3159;52.414;9.784;2023-08-07T02:14:15;5.63;;;4.70;;
6251;SDS011;3159;52.414;9.784;2023-08-07T02:16:42;6.07;;;4.97;;
6251;SDS011;3159;52.414;9.784;2023-08-07T02:19:08;5.27;;;3.87;;
6251;SDS011;3159;52.414;9.784;2023-08-07T02:21:35;6.10;;;4.27;;
6251;SDS011;3159;52.414;9.784;2023-08-07T02:24:02;5.00;;;4.50;;
6251;SDS011;3159;52.414;9.784;2023-08-07T02:26:29;4.67;;;4.17;;
6251;SDS011;3159;52.414;9.784;2023-08-07T02:28:58;5.30;;;4.17;;
6251;SDS011;3159;52.414;9.784;2023-08-07T02:31:24;4.83;;;4.27;;
6251;SDS011;3159;52.414;9.784;2023-08-07T02:33:51;4.93;;;4.00;;
6251;SDS011;3159;52.414;9.784;2023-08-07T02:36:18;7.07;;;4.70;;
6251;SDS011;3159;52.414;9.784;2023-08-07T02:38:45;4.70;;;4.30;;
6251;SDS011;3159;52.414;9.784;2023-08-07T02:41:12;4.57;;;4.10;;
6251;SDS011;3159;52.414;9.784;2023-08-07T02:43:39;5.47;;;4.23;;
6251;SDS011;3159;52.414;9.784;2023-08-07T02:46:07;5.20;;;3.90;;
6251;SDS011;3159;52.414;9.784;2023-08-07T02:48:33;5.57;;;3.80;;
6251;SDS011;3159;52.414;9.784;2023-08-07T02:51:00;4.37;;;3.97;;
6251;SDS011;3159;52.414;9.784;2023-08-07T02:53:27;4.77;;;3.73;;
6251;SDS011;3159;52.414;9.784;2023-08-07T02:55:54;6.43;;;3.93;;
6251;SDS011;3159;52.414;9.784;2023-08-07T02:58:21;4.43;;;3.43;;
6251;SDS011;3159;52.414;9.784;2023-08-07T03:00:48;3.60;;;3.30;;
6251;SDS011;3159;52.414;9.784;2023-08-07T03:03:16;3.77;;;3.23;;
6251;SDS011;3159;52.414;9.784;2023-08-07T03:05:47;3.77;;;3.10;;
6251;SDS011;3159;52.414;9.784;2023-08-07T03:08:15;5.70;;;4.07;;
6251;SDS011;3159;52.414;9.784;2023-08-07T03:10:42;5.90;;;3.63;;
6251;SDS011;3159;52.414;9.784;2023-08-07T03:13:08;6.40;;;3.83;;
6251;SDS011;3159;52.414;9.784;2023-08-07T03:15:35;6.83;;;4.27;;
6251;SDS011;3159;52.414;9.784;2023-08-07T03:18:02;5.90;;;4.10;;
6251;SDS011;3159;52.414;9.784;2023-08-07T03:20:30;5.17;;;3.97;;
6251;SDS011;3159;52.414;9.784;2023-08-07T03:22:57;5.10;;;4.20;;
6251;SDS011;3159;52.414;9.784;2023-08-07T03:25:24;5.20;;;4.50;;
6251;SDS011;3159;52.414;9.784;2023-08-07T03:27:51;7.90;;;4.67;;
6251;SDS011;3159;52.414;9.784;2023-08-07T03:30:17;5.93;;;4.70;;
6251;SDS011;3159;52.414;9.784;2023-08-07T03:32:44;4.63;;;4.23;;
6251;SDS011;3159;52.414;9.784;2023-08-07T03:35:11;7.37;;;4.57;;
6251;SDS011;3159;52.414;9.784;2023-08-07T03:37:39;5.77;;;4.83;;
6251;SDS011;3159;52.414;9.784;2023-08-07T03:40:07;7.57;;;5.90;;
6251;SDS011;3159;52.414;9.784;2023-08-07T03:42:34;7.53;;;6.03;;
6251;SDS011;3159;52.414;9.784;2023-08-07T03:45:01;5.63;;;5.13;;
6251;SDS011;3159;52.414;9.784;2023-08-07T03:47:28;5.73;;;4.70;;
6251;SDS011;3159;52.414;9.784;2023-08-07T03:49:54;4.80;;;4.07;;
6251;SDS011;3159;52.414;9.784;2023-08-07T03:52:21;6.47;;;4.73;;
6251;SDS011;3159;52.414;9.784;2023-08-07T03:54:50;7.37;;;5.27;;
6251;SDS011;3159;52.414;9.784;2023-08-07T03:57:16;6.27;;;4.87;;
6251;SDS011;3159;52.414;9.784;2023-08-07T03:59:43;5.77;;;5.17;;
6251;SDS011;3159;52.414;9.784;2023-08-07T04:02:10;6.63;;;5.50;;
6251;SDS011;3159;52.414;9.784;2023-08-07T04:04:37;7.33;;;5.33;;
6251;SDS011;3159;52.414;9.784;2023-08-07T04:07:04;8.53;;;5.40;;
6251;SDS011;3159;52.414;9.784;2023-08-07T04:09:31;7.97;;;5.07;;
6251;SDS011;3159;52.414;9.784;2023-08-07T04:11:59;6.43;;;5.27;;
6251;SDS011;3159;52.414;9.784;2023-08-07T04:14:26;6.20;;;5.37;;
6251;SDS011;3159;52.414;9.784;2023-08-07T04:16:53;7.30;;;6.03;;
6251;SDS011;3159;52.414;9.784;2023-08-07T04:19:20;9.63;;;5.53;;
6251;SDS011;3159;52.414;9.784;2023-08-07T04:21:47;6.47;;;5.03;;
6251;SDS011;3159;52.414;9.784;2023-08-07T04:24:13;6.70;;;5.17;;
6251;SDS011;3159;52.414;9.784;2023-08-07T04:26:40;5.33;;;4.83;;
6251;SDS011;3159;52.414;9.784;2023-08-07T04:29:09;8.07;;;5.37;;
6251;SDS011;3159;52.414;9.784;2023-08-07T04:31:38;8.37;;;5.73;;
6251;SDS011;3159;52.414;9.784;2023-08-07T04:34:05;6.43;;;4.77;;
6251;SDS011;3159;52.414;9.784;2023-08-07T04:36:32;6.10;;;5.00;;
6251;SDS011;3159;52.414;9.784;2023-08-07T04:38:59;4.73;;;4.20;;
6251;SDS011;3159;52.414;9.784;2023-08-07T04:41:26;6.03;;;4.27;;
6251;SDS011;3159;52.414;9.784;2023-08-07T04:43:53;6.17;;;4.53;;
6251;SDS011;3159;52.414;9.784;2023-08-07T04:46:21;4.40;;;4.00;;
6251;SDS011;3159;52.414;9.784;2023-08-07T04:48:48;6.77;;;4.10;;
6251;SDS011;3159;52.414;9.784;2023-08-07T04:51:15;5.83;;;4.30;;
6251;SDS011;3159;52.414;9.784;2023-08-07T04:53:42;5.77;;;4.60;;
6251;SDS011;3159;52.414;9.784;2023-08-07T04:56:09;6.90;;;4.77;;
6251;SDS011;3159;52.414;9.784;2023-08-07T04:58:36;5.77;;;4.43;;
6251;SDS011;3159;52.414;9.784;2023-08-07T05:01:03;7.57;;;4.83;;
6251;SDS011;3159;52.414;9.784;2023-08-07T05:03:33;7.17;;;4.27;;
6251;SDS011;3159;52.414;9.784;2023-08-07T05:06:00;5.70;;;4.10;;
6251;SDS011;3159;52.414;9.784;2023-08-07T05:08:27;5.60;;;4.47;;
6251;SDS011;3159;52.414;9.784;2023-08-07T05:10:54;6.93;;;4.63;;
6251;SDS011;3159;52.414;9.784;2023-08-07T05:13:21;6.87;;;4.43;;
6251;SDS011;3159;52.414;9.784;2023-08-07T05:15:48;4.70;;;4.30;;
6251;SDS011;3159;52.414;9.784;2023-08-07T05:18:15;4.27;;;3.87;;
6251;SDS011;3159;52.414;9.784;2023-08-07T05:20:43;5.70;;;3.67;;
6251;SDS011;3159;52.414;9.784;2023-08-07T05:23:10;4.70;;;3.87;;
6251;SDS011;3159;52.414;9.784;2023-08-07T05:25:37;4.93;;;3.80;;
6251;SDS011;3159;52.414;9.784;2023-08-07T05:28:04;4.30;;;3.80;;
6251;SDS011;3159;52.414;9.784;2023-08-07T05:30:31;4.20;;;3.40;;
6251;SDS011;3159;52.414;9.784;2023-08-07T05:32:58;4.53;;;3.27;;
6251;SDS011;3159;52.414;9.784;2023-08-07T05:35:25;4.10;;;3.70;;
6251;SDS011;3159;52.414;9.784;2023-08-07T05:37:53;4.23;;;3.83;;
6251;SDS011;3159;52.414;9.784;2023-08-07T05:40:20;6.10;;;4.03;;
6251;SDS011;3159;52.414;9.784;2023-08-07T05:42:47;3.90;;;3.50;;
6251;SDS011;3159;52.414;9.784;2023-08-07T05:45:14;5.40;;;3.50;;
6251;SDS011;3159;52.414;9.784;2023-08-07T05:47:41;4.37;;;3.63;;
6251;SDS011;3159;52.414;9.784;2023-08-07T05:50:08;4.33;;;3.63;;
6251;SDS011;3159;52.414;9.784;2023-08-07T05:52:35;6.27;;;4.30;;
6251;SDS011;3159;52.414;9.784;2023-08-07T05:55:04;3.47;;;3.17;;
6251;SDS011;3159;52.414;9.784;2023-08-07T05:57:31;4.70;;;3.57;;
6251;SDS011;3159;52.414;9.784;2023-08-07T05:59:58;4.47;;;3.80;;
6251;SDS011;3159;52.414;9.784;2023-08-07T06:02:25;3.80;;;3.27;;
6251;SDS011;3159;52.414;9.784;2023-08-07T06:04:52;4.17;;;3.40;;
6251;SDS011;3159;52.414;9.784;2023-08-07T06:07:19;4.50;;;3.60;;
6251;SDS011;3159;52.414;9.784;2023-08-07T06:09:46;5.23;;;3.60;;
6251;SDS011;3159;52.414;9.784;2023-08-07T06:12:14;5.23;;;3.30;;
6251;SDS011;3159;52.414;9.784;2023-08-07T06:14:41;5.47;;;3.50;;
6251;SDS011;3159;52.414;9.784;2023-08-07T06:17:08;5.80;;;3.60;;
6251;SDS011;3159;52.414;9.784;2023-08-07T06:19:35;3.90;;;3.20;;
6251;SDS011;3159;52.414;9.784;2023-08-07T06:22:02;5.20;;;2.73;;
6251;SDS011;3159;52.414;9.784;2023-08-07T06:24:29;3.13;;;2.83;;
6251;SDS011;3159;52.414;9.784;2023-08-07T06:26:55;3.27;;;2.87;;
6251;SDS011;3159;52.414;9.784;2023-08-07T06:29:24;2.97;;;2.77;;
6251;SDS011;3159;52.414;9.784;2023-08-07T06:31:50;2.97;;;2.50;;
6251;SDS011;3159;52.414;9.784;2023-08-07T06:34:17;2.87;;;2.50;;
6251;SDS011;3159;52.414;9.784;2023-08-07T06:36:43;6.57;;;2.70;;
6251;SDS011;3159;52.414;9.784;2023-08-07T06:39:10;2.60;;;2.40;;
6251;SDS011;3159;52.414;9.784;2023-08-07T06:41:37;5.73;;;2.90;;
6251;SDS011;3159;52.414;9.784;2023-08-07T06:44:04;3.00;;;2.53;;
6251;SDS011;3159;52.414;9.784;2023-08-07T06:46:32;2.83;;;2.20;;
6251;SDS011;3159;52.414;9.784;2023-08-07T06:48:59;3.13;;;2.50;;
6251;SDS011;3159;52.414;9.784;2023-08-07T06:51:26;2.43;;;2.10;;
6251;SDS011;3159;52.414;9.784;2023-08-07T06:53:53;3.57;;;2.70;;
6251;SDS011;3159;52.414;9.784;2023-08-07T06:56:20;3.50;;;2.20;;
6251;SDS011;3159;52.414;9.784;2023-08-07T06:58:46;3.63;;;2.90;;
6251;SDS011;3159;52.414;9.784;2023-08-07T07:01:13;3.63;;;2.57;;
6251;SDS011;3159;52.414;9.784;2023-08-07T07:03:42;2.50;;;2.30;;
6251;SDS011;3159;52.414;9.784;2023-08-07T07:06:10;3.10;;;2.40;;
6251;SDS011;3159;52.414;9.784;2023-08-07T07:08:37;5.10;;;2.43;;
6251;SDS011;3159;52.414;9.784;2023-08-07T07:11:04;3.33;;;2.30;;
6251;SDS011;3159;52.414;9.784;2023-08-07T07:13:31;3.97;;;2.67;;
6251;SDS011;3159;52.414;9.784;2023-08-07T07:15:57;2.97;;;2.60;;
6251;SDS011;3159;52.414;9.784;2023-08-07T07:18:24;4.87;;;3.13;;
6251;SDS011;3159;52.414;9.784;2023-08-07T07:20:57;3.23;;;2.70;;
6251;SDS011;3159;52.414;9.784;2023-08-07T07:23:25;4.13;;;2.40;;
6251;SDS011;3159;52.414;9.784;2023-08-07T07:25:53;4.17;;;2.40;;
6251;SDS011;3159;52.414;9.784;2023-08-07T07:28:20;4.23;;;2.80;;
6251;SDS011;3159;52.414;9.784;2023-08-07T07:30:47;4.03;;;2.50;;
6251;SDS011;3159;52.414;9.784;2023-08-07T07:33:13;3.20;;;2.13;;
6251;SDS011;3159;52.414;9.784;2023-08-07T07:35:40;3.83;;;2.40;;
6251;SDS011;3159;52.414;9.784;2023-08-07T07:38:08;3.03;;;2.23;;
6251;SDS011;3159;52.414;9.784;2023-08-07T07:40:36;3.63;;;2.57;;
6251;SDS011;3159;52.414;9.784;2023-08-07T07:43:04;5.37;;;2.70;;
6251;SDS011;3159;52.414;9.784;2023-08-07T07:45:30;4.63;;;2.60;;
6251;SDS011;3159;52.414;9.784;2023-08-07T07:47:58;3.83;;;2.00;;
6251;SDS011;3159;52.414;9.784;2023-08-07T07:50:25;3.37;;;2.20;;
6251;SDS011;3159;52.414;9.784;2023-08-07T07:52:52;2.40;;;1.80;;
6251;SDS011;3159;52.414;9.784;2023-08-07T07:55:20;1.97;;;1.83;;
6251;SDS011;3159;52.414;9.784;2023-08-07T07:57:47;5.37;;;2.00;;
6251;SDS011;3159;52.414;9.784;2023-08-07T08:00:15;2.07;;;1.87;;
6251;SDS011;3159;52.414;9.784;2023-08-07T08:02:43;2.63;;;1.60;;
6251;SDS011;3159;52.414;9.784;2023-08-07T08:05:10;1.63;;;1.30;;
6251;SDS011;3159;52.414;9.784;2023-08-07T08:07:38;2.80;;;1.80;;
6251;SDS011;3159;52.414;9.784;2023-08-07T08:10:05;2.73;;;1.60;;
6251;SDS011;3159;52.414;9.784;2023-08-07T08:12:35;3.87;;;2.00;;
6251;SDS011;3159;52.414;9.784;2023-08-07T08:15:02;2.70;;;1.43;;
6251;SDS011;3159;52.414;9.784;2023-08-07T08:17:30;3.10;;;1.50;;
6251;SDS011;3159;52.414;9.784;2023-08-07T08:19:57;2.43;;;1.60;;
6251;SDS011;3159;52.414;9.784;2023-08-07T08:22:24;2.27;;;1.30;;
6251;SDS011;3159;52.414;9.784;2023-08-07T08:24:51;2.20;;;1.33;;
6251;SDS011;3159;52.414;9.784;2023-08-07T08:27:18;1.50;;;1.30;;
6251;SDS011;3159;52.414;9.784;2023-08-07T08:29:46;2.20;;;1.53;;
6251;SDS011;3159;52.414;9.784;2023-08-07T08:32:13;3.30;;;1.40;;
6251;SDS011;3159;52.414;9.784;2023-08-07T08:34:40;2.80;;;1.40;;
6251;SDS011;3159;52.414;9.784;2023-08-07T08:37:06;2.80;;;1.70;;
6251;SDS011;3159;52.414;9.784;2023-08-07T08:39:35;2.10;;;1.40;;
6251;SDS011;3159;52.414;9.784;2023-08-07T08:42:02;1.77;;;1.50;;
6251;SDS011;3159;52.414;9.784;2023-08-07T08:44:30;3.00;;;1.43;;
6251;SDS011;3159;52.414;9.784;2023-08-07T08:47:04;2.83;;;1.70;;
6251;SDS011;3159;52.414;9.784;2023-08-07T08:49:33;1.57;;;1.30;;
6251;SDS011;3159;52.414;9.784;2023-08-07T08:52:02;3.17;;;1.43;;
6251;SDS011;3159;52.414;9.784;2023-08-07T08:54:30;1.73;;;1.30;;
6251;SDS011;3159;52.414;9.784;2023-08-07T08:56:58;5.67;;;1.60;;
6251;SDS011;3159;52.414;9.784;2023-08-07T08:59:25;2.20;;;1.10;;
6251;SDS011;3159;52.414;9.784;2023-08-07T09:01:52;1.67;;;1.40;;
6251;SDS011;3159;52.414;9.784;2023-08-07T09:04:21;2.67;;;1.63;;
6251;SDS011;3159;52.414;9.784;2023-08-07T09:06:48;3.70;;;1.60;;
6251;SDS011;3159;52.414;9.784;2023-08-07T09:09:16;2.97;;;1.77;;
6251;SDS011;3159;52.414;9.784;2023-08-07T09:11:44;4.43;;;1.57;;
6251;SDS011;3159;52.414;9.784;2023-08-07T09:14:13;4.07;;;2.00;;
6251;SDS011;3159;52.414;9.784;2023-08-07T09:16:43;5.23;;;2.03;;
6251;SDS011;3159;52.414;9.784;2023-08-07T09:19:11;5.00;;;2.20;;
6251;SDS011;3159;52.414;9.784;2023-08-07T09:21:40;4.97;;;2.00;;
6251;SDS011;3159;52.414;9.784;2023-08-07T09:24:07;5.13;;;2.17;;
6251;SDS011;3159;52.414;9.784;2023-08-07T09:26:34;4.80;;;1.90;;
6251;SDS011;3159;52.414;9.784;2023-08-07T09:29:01;3.80;;;1.93;;
6251;SDS011;3159;52.414;9.784;2023-08-07T09:31:29;5.63;;;2.20;;
6251;SDS011;3159;52.414;9.784;2023-08-07T09:34:00;5.10;;;2.00;;
6251;SDS011;3159;52.414;9.784;2023-08-07T09:36:29;4.10;;;2.27;;
6251;SDS011;3159;52.414;9.784;2023-08-07T09:38:58;5.17;;;2.07;;
6251;SDS011;3159;52.414;9.784;2023-08-07T09:41:28;3.43;;;1.90;;
6251;SDS011;3159;52.414;9.784;2023-08-07T09:43:55;3.33;;;1.63;;
6251;SDS011;3159;52.414;9.784;2023-08-07T09:46:22;3.83;;;1.90;;
6251;SDS011;3159;52.414;9.784;2023-08-07T09:48:51;3.83;;;1.73;;
6251;SDS011;3159;52.414;9.784;2023-08-07T09:51:18;3.63;;;1.60;;
6251;SDS011;3159;52.414;9.784;2023-08-07T09:53:46;5.37;;;1.97;;
6251;SDS011;3159;52.414;9.784;2023-08-07T09:56:15;5.57;;;1.93;;
6251;SDS011;3159;52.414;9.784;2023-08-07T09:58:44;7.10;;;2.00;;
6251;SDS011;3159;52.414;9.784;2023-08-07T10:01:14;4.70;;;1.70;;
6251;SDS011;3159;52.414;9.784;2023-08-07T10:03:43;3.43;;;1.93;;
6251;SDS011;3159;52.414;9.784;2023-08-07T10:06:11;4.07;;;1.70;;
6251;SDS011;3159;52.414;9.784;2023-08-07T10:08:39;4.90;;;1.83;;
6251;SDS011;3159;52.414;9.784;2023-08-07T10:11:07;5.60;;;1.63;;
6251;SDS011;3159;52.414;9.784;2023-08-07T10:13:37;3.53;;;1.60;;
6251;SDS011;3159;52.414;9.784;2023-08-07T10:16:04;3.20;;;1.60;;
6251;SDS011;3159;52.414;9.784;2023-08-07T10:18:32;4.00;;;1.80;;
6251;SDS011;3159;52.414;9.784;2023-08-07T10:21:00;4.97;;;1.80;;
6251;SDS011;3159;52.414;9.784;2023-08-07T10:23:28;5.47;;;1.90;;
6251;SDS011;3159;52.414;9.784;2023-08-07T10:25:54;5.93;;;1.70;;
6251;SDS011;3159;52.414;9.784;2023-08-07T10:28:23;3.33;;;1.70;;
6251;SDS011;3159;52.414;9.784;2023-08-07T10:30:53;5.00;;;1.93;;
6251;SDS011;3159;52.414;9.784;2023-08-07T10:33:20;4.07;;;2.27;;
6251;SDS011;3159;52.414;9.784;2023-08-07T10:35:49;4.17;;;1.40;;
6251;SDS011;3159;52.414;9.784;2023-08-07T10:38:19;4.10;;;2.10;;
6251;SDS011;3159;52.414;9.784;2023-08-07T10:40:59;2.80;;;1.50;;
6251;SDS011;3159;52.414;9.784;2023-08-07T10:43:28;2.27;;;1.20;;
6251;SDS011;3159;52.414;9.784;2023-08-07T10:46:01;5.17;;;1.70;;
6251;SDS011;3159;52.414;9.784;2023-08-07T10:48:30;2.77;;;1.73;;
6251;SDS011;3159;52.414;9.784;2023-08-07T10:51:03;5.17;;;1.60;;
6251;SDS011;3159;52.414;9.784;2023-08-07T10:53:31;4.47;;;1.40;;
6251;SDS011;3159;52.414;9.784;2023-08-07T10:56:01;3.17;;;1.40;;
6251;SDS011;3159;52.414;9.784;2023-08-07T10:58:29;2.50;;;1.40;;
6251;SDS011;3159;52.414;9.784;2023-08-07T11:03:48;3.93;;;1.73;;
6251;SDS011;3159;52.414;9.784;2023-08-07T11:06:16;2.57;;;1.10;;
6251;SDS011;3159;52.414;9.784;2023-08-07T11:08:43;4.77;;;1.60;;
6251;SDS011;3159;52.414;9.784;2023-08-07T11:11:10;3.10;;;1.20;;
6251;SDS011;3159;52.414;9.784;2023-08-07T11:13:37;3.67;;;1.50;;
6251;SDS011;3159;52.414;9.784;2023-08-07T11:16:04;1.70;;;1.20;;
6251;SDS011;3159;52.414;9.784;2023-08-07T11:18:32;4.80;;;1.47;;
6251;SDS011;3159;52.414;9.784;2023-08-07T11:21:00;5.53;;;1.63;;
6251;SDS011;3159;52.414;9.784;2023-08-07T11:23:28;4.00;;;1.73;;
6251;SDS011;3159;52.414;9.784;2023-08-07T11:25:55;4.23;;;1.60;;
6251;SDS011;3159;52.414;9.784;2023-08-07T11:28:22;6.10;;;1.57;;
6251;SDS011;3159;52.414;9.784;2023-08-07T11:30:51;4.13;;;1.67;;
6251;SDS011;3159;52.414;9.784;2023-08-07T11:33:20;5.00;;;2.23;;
6251;SDS011;3159;52.414;9.784;2023-08-07T11:35:48;5.57;;;1.80;;
6251;SDS011;3159;52.414;9.784;2023-08-07T11:38:28;2.63;;;1.40;;
6251;SDS011;3159;52.414;9.784;2023-08-07T11:40:57;3.20;;;0.97;;
6251;SDS011;3159;52.414;9.784;2023-08-07T11:43:26;3.90;;;1.13;;
6251;SDS011;3159;52.414;9.784;2023-08-07T11:45:53;2.30;;;1.00;;
6251;SDS011;3159;52.414;9.784;2023-08-07T11:48:22;1.97;;;0.90;;
6251;SDS011;3159;52.414;9.784;2023-08-07T11:50:51;1.87;;;1.07;;
6251;SDS011;3159;52.414;9.784;2023-08-07T11:53:19;2.47;;;1.10;;
6251;SDS011;3159;52.414;9.784;2023-08-07T11:55:47;3.03;;;1.17;;
6251;SDS011;3159;52.414;9.784;2023-08-07T11:58:18;3.80;;;1.23;;
6251;SDS011;3159;52.414;9.784;2023-08-07T12:00:45;2.23;;;1.13;;
6251;SDS011;3159;52.414;9.784;2023-08-07T12:03:28;2.87;;;1.40;;
6251;SDS011;3159;52.414;9.784;2023-08-07T12:05:58;2.37;;;1.47;;
6251;SDS011;3159;52.414;9.784;2023-08-07T12:08:33;2.93;;;1.40;;
6251;SDS011;3159;52.414;9.784;2023-08-07T12:11:04;3.77;;;1.40;;
6251;SDS011;3159;52.414;9.784;2023-08-07T12:13:32;2.70;;;1.13;;
6251;SDS011;3159;52.414;9.784;2023-08-07T12:16:00;1.37;;;1.13;;
6251;SDS011;3159;52.414;9.784;2023-08-07T12:18:29;1.70;;;1.07;;
6251;SDS011;3159;52.414;9.784;2023-08-07T12:20:58;1.80;;;1.00;;
6251;SDS011;3159;52.414;9.784;2023-08-07T12:23:26;5.17;;;1.13;;
6251;SDS011;3159;52.414;9.784;2023-08-07T12:25:54;4.27;;;1.17;;
6251;SDS011;3159;52.414;9.784;2023-08-07T12:28:21;2.60;;;0.90;;
6251;SDS011;3159;52.414;9.784;2023-08-07T12:30:48;2.80;;;1.17;;
6251;SDS011;3159;52.414;9.784;2023-08-07T12:33:16;4.43;;;1.30;;
6251;SDS011;3159;52.414;9.784;2023-08-07T12:35:44;2.30;;;1.20;;
6251;SDS011;3159;52.414;9.784;2023-08-07T12:38:12;3.97;;;1.60;;
6251;SDS011;3159;52.414;9.784;2023-08-07T12:40:40;2.93;;;1.17;;
6251;SDS011;3159;52.414;9.784;2023-08-07T12:43:07;4.07;;;1.73;;
6251;SDS011;3159;52.414;9.784;2023-08-07T12:45:34;2.80;;;1.43;;
6251;SDS011;3159;52.414;9.784;2023-08-07T12:48:04;3.90;;;1.30;;
6251;SDS011;3159;52.414;9.784;2023-08-07T12:50:32;5.73;;;1.90;;
6251;SDS011;3159;52.414;9.784;2023-08-07T12:53:02;3.97;;;1.87;;
6251;SDS011;3159;52.414;9.784;2023-08-07T12:55:30;5.93;;;1.63;;
6251;SDS011;3159;52.414;9.784;2023-08-07T12:57:57;3.67;;;1.87;;
6251;SDS011;3159;52.414;9.784;2023-08-07T13:00:24;4.00;;;1.50;;
6251;SDS011;3159;52.414;9.784;2023-08-07T13:02:52;2.97;;;1.57;;
6251;SDS011;3159;52.414;9.784;2023-08-07T13:05:20;3.50;;;1.23;;
6251;SDS011;3159;52.414;9.784;2023-08-07T13:07:48;2.23;;;1.40;;
6251;SDS011;3159;52.414;9.784;2023-08-07T13:10:15;3.73;;;1.50;;
6251;SDS011;3159;52.414;9.784;2023-08-07T13:15:23;5.40;;;1.90;;
6251;SDS011;3159;52.414;9.784;2023-08-07T13:17:51;3.67;;;1.60;;
6251;SDS011;3159;52.414;9.784;2023-08-07T13:20:18;3.50;;;1.80;;
6251;SDS011;3159;52.414;9.784;2023-08-07T13:22:45;4.13;;;1.77;;
6251;SDS011;3159;52.414;9.784;2023-08-07T13:25:12;4.97;;;2.20;;
6251;SDS011;3159;52.414;9.784;2023-08-07T13:27:39;4.07;;;2.00;;
6251;SDS011;3159;52.414;9.784;2023-08-07T13:30:08;3.57;;;1.87;;
6251;SDS011;3159;52.414;9.784;2023-08-07T13:32:36;4.57;;;1.87;;
6251;SDS011;3159;52.414;9.784;2023-08-07T13:35:03;4.30;;;1.60;;
6251;SDS011;3159;52.414;9.784;2023-08-07T13:37:30;6.13;;;1.80;;
6251;SDS011;3159;52.414;9.784;2023-08-07T13:39:58;6.03;;;1.80;;
6251;SDS011;3159;52.414;9.784;2023-08-07T13:42:25;3.03;;;1.80;;
6251;SDS011;3159;52.414;9.784;2023-08-07T13:44:53;3.43;;;1.60;;
6251;SDS011;3159;52.414;9.784;2023-08-07T13:47:22;2.67;;;1.40;;
6251;SDS011;3159;52.414;9.784;2023-08-07T13:49:50;3.40;;;1.50;;
6251;SDS011;3159;52.414;9.784;2023-08-07T13:52:18;4.93;;;1.60;;
6251;SDS011;3159;52.414;9.784;2023-08-07T13:54:45;6.53;;;2.27;;
6251;SDS011;3159;52.414;9.784;2023-08-07T13:57:11;4.10;;;1.70;;
6251;SDS011;3159;52.414;9.784;2023-08-07T13:59:38;4.73;;;1.73;;
6251;SDS011;3159;52.414;9.784;2023-08-07T14:02:06;4.23;;;1.40;;
6251;SDS011;3159;52.414;9.784;2023-08-07T14:04:35;3.07;;;1.67;;
6251;SDS011;3159;52.414;9.784;2023-08-07T14:07:02;3.00;;;1.80;;
6251;SDS011;3159;52.414;9.784;2023-08-07T14:09:29;3.97;;;1.70;;
6251;SDS011;3159;52.414;9.784;2023-08-07T14:11:56;3.80;;;1.70;;
6251;SDS011;3159;52.414;9.784;2023-08-07T14:14:24;4.13;;;1.93;;
6251;SDS011;3159;52.414;9.784;2023-08-07T14:16:50;4.17;;;2.00;;
6251;SDS011;3159;52.414;9.784;2023-08-07T14:19:19;2.73;;;1.60;;
6251;SDS011;3159;52.414;9.784;2023-08-07T14:21:47;6.10;;;2.10;;
6251;SDS011;3159;52.414;9.784;2023-08-07T14:24:14;3.83;;;1.67;;
6251;SDS011;3159;52.414;9.784;2023-08-07T14:26:41;4.60;;;2.00;;
6251;SDS011;3159;52.414;9.784;2023-08-07T14:29:08;3.27;;;1.60;;
6251;SDS011;3159;52.414;9.784;2023-08-07T14:31:35;2.70;;;1.70;;
6251;SDS011;3159;52.414;9.784;2023-08-07T14:34:02;4.07;;;1.60;;
6251;SDS011;3159;52.414;9.784;2023-08-07T14:36:29;2.93;;;1.80;;
6251;SDS011;3159;52.414;9.784;2023-08-07T14:38:57;2.93;;;1.67;;
6251;SDS011;3159;52.414;9.784;2023-08-07T14:41:24;5.20;;;1.67;;
6251;SDS011;3159;52.414;9.784;2023-08-07T14:43:51;3.03;;;1.70;;
6251;SDS011;3159;52.414;9.784;2023-08-07T14:46:19;3.50;;;1.60;;
6251;SDS011;3159;52.414;9.784;2023-08-07T14:48:48;4.77;;;1.70;;
6251;SDS011;3159;52.414;9.784;2023-08-07T14:51:15;2.77;;;1.53;;
6251;SDS011;3159;52.414;9.784;2023-08-07T14:53:42;5.17;;;1.80;;
6251;SDS011;3159;52.414;9.784;2023-08-07T14:56:10;3.97;;;1.60;;
6251;SDS011;3159;52.414;9.784;2023-08-07T14:58:37;4.73;;;1.83;;
6251;SDS011;3159;52.414;9.784;2023-08-07T15:01:04;5.03;;;1.90;;
6251;SDS011;3159;52.414;9.784;2023-08-07T15:03:31;2.47;;;1.50;;
6251;SDS011;3159;52.414;9.784;2023-08-07T15:05:58;3.20;;;1.73;;
6251;SDS011;3159;52.414;9.784;2023-08-07T15:08:25;4.17;;;1.53;;
6251;SDS011;3159;52.414;9.784;2023-08-07T15:10:52;4.90;;;1.40;;
6251;SDS011;3159;52.414;9.784;2023-08-07T15:13:20;2.80;;;1.50;;
6251;SDS011;3159;52.414;9.784;2023-08-07T15:15:47;2.63;;;1.57;;
6251;SDS011;3159;52.414;9.784;2023-08-07T15:18:14;5.47;;;1.53;;
6251;SDS011;3159;52.414;9.784;2023-08-07T15:20:41;3.00;;;1.20;;
6251;SDS011;3159;52.414;9.784;2023-08-07T15:23:08;2.97;;;1.30;;